createdAt,value
2019-03-05T00:00:30.298Z,7.90
2019-03-05T00:01:30.278Z,7.89
2019-03-05T00:02:30.250Z,7.84
2019-03-05T00:03:30.271Z,7.85
2019-03-05T00:04:30.263Z,7.96
2019-03-05T00:05:30.231Z,7.89
2019-03-05T00:06:30.217Z,7.84
2019-03-05T00:07:30.213Z,7.81
2019-03-05T00:08:30.207Z,7.85
2019-03-05T00:09:30.194Z,7.87
2019-03-05T00:10:30.204Z,7.82
2019-03-05T00:11:30.210Z,7.87
2019-03-05T00:12:30.177Z,7.84
2019-03-05T00:13:30.162Z,7.79
2019-03-05T00:14:30.151Z,7.90
2019-03-05T00:15:30.147Z,7.85
2019-03-05T00:16:30.142Z,7.74
2019-03-05T00:17:30.145Z,7.74
2019-03-05T00:18:30.130Z,7.74
2019-03-05T00:19:30.115Z,7.81
2019-03-05T00:20:30.092Z,7.94
2019-03-05T00:21:30.081Z,7.92
2019-03-05T00:22:30.079Z,7.93
2019-03-05T00:23:30.079Z,7.81
2019-03-05T00:24:30.085Z,7.89
2019-03-05T00:25:30.052Z,7.81
2019-03-05T00:26:30.040Z,7.84
2019-03-05T00:27:30.102Z,7.75
2019-03-05T00:28:30.034Z,7.81
2019-03-05T00:29:30.018Z,7.85
2019-03-05T00:30:30.016Z,7.77
2019-03-05T00:31:30.027Z,7.74
2019-03-05T00:32:29.987Z,7.81
2019-03-05T00:33:32.571Z,7.79
2019-03-05T00:34:29.973Z,7.75
2019-03-05T00:35:29.965Z,7.75
2019-03-05T00:36:29.956Z,7.85
2019-03-05T00:37:29.976Z,7.82
2019-03-05T00:38:29.953Z,7.82
2019-03-05T00:39:29.929Z,7.85
2019-03-05T00:40:29.920Z,7.85
2019-03-05T00:41:29.906Z,7.92
2019-03-05T00:42:29.901Z,7.93
2019-03-05T00:43:29.909Z,7.93
2019-03-05T00:44:29.905Z,7.85
2019-03-05T00:45:29.971Z,7.90
2019-03-05T00:46:29.870Z,7.92
2019-03-05T00:47:29.852Z,8.03
2019-03-05T00:48:29.854Z,7.99
2019-03-05T00:49:29.847Z,7.94
2019-03-05T00:50:29.839Z,8.03
2019-03-05T00:51:29.833Z,7.96
2019-03-05T00:52:29.817Z,7.96
2019-03-05T00:53:29.805Z,8.12
2019-03-05T00:54:29.796Z,7.99
2019-03-05T00:55:29.785Z,7.96
2019-03-05T00:56:29.797Z,8.04
2019-03-05T00:57:29.767Z,8.15
2019-03-05T00:58:29.763Z,8.07
2019-03-05T00:59:29.772Z,8.08
2019-03-05T01:00:29.743Z,8.15
2019-03-05T01:01:29.729Z,8.12
2019-03-05T01:02:29.728Z,8.15
2019-03-05T01:03:29.718Z,8.18
2019-03-05T01:04:29.714Z,8.22
2019-03-05T01:05:29.703Z,8.15
2019-03-05T01:06:29.688Z,8.10
2019-03-05T01:07:29.687Z,8.11
2019-03-05T01:08:29.705Z,8.20
2019-03-05T01:09:29.665Z,8.15
2019-03-05T01:10:29.679Z,8.15
2019-03-05T01:11:29.653Z,8.12
2019-03-05T01:12:29.638Z,8.11
2019-03-05T01:13:29.629Z,8.08
2019-03-05T01:14:29.620Z,8.10
2019-03-05T01:15:29.612Z,8.14
2019-03-05T01:16:29.615Z,8.12
2019-03-05T01:17:29.600Z,8.10
2019-03-05T01:18:29.590Z,8.17
2019-03-05T01:19:29.576Z,8.17
2019-03-05T01:20:29.569Z,8.22
2019-03-05T01:21:29.554Z,8.08
2019-03-05T01:22:29.563Z,8.07
2019-03-05T01:23:29.549Z,8.04
2019-03-05T01:24:29.536Z,8.02
2019-03-05T01:25:29.530Z,8.08
2019-03-05T01:26:29.517Z,8.11
2019-03-05T01:27:29.508Z,8.04
2019-03-05T01:28:29.509Z,8.07
2019-03-05T01:29:29.533Z,7.92
2019-03-05T01:30:29.475Z,8.00
2019-03-05T01:31:29.474Z,8.03
2019-03-05T01:32:38.110Z,7.97
2019-03-05T01:34:33.959Z,7.89
2019-03-05T01:35:33.915Z,7.87
2019-03-05T01:36:33.908Z,7.90
2019-03-05T01:37:33.908Z,7.84
2019-03-05T01:38:33.893Z,7.89
2019-03-05T01:39:33.881Z,7.87
2019-03-05T01:40:33.875Z,7.84
2019-03-05T01:41:33.879Z,7.94
2019-03-05T01:42:33.849Z,7.87
2019-03-05T01:43:33.859Z,7.81
2019-03-05T01:44:33.839Z,7.81
2019-03-05T01:45:33.826Z,7.81
2019-03-05T01:46:33.827Z,7.81
2019-03-05T01:47:33.817Z,7.90
2019-03-05T01:48:33.849Z,7.87
2019-03-05T01:49:33.796Z,7.85
2019-03-05T01:50:33.784Z,7.81
2019-03-05T01:51:33.774Z,7.94
2019-03-05T01:52:33.766Z,7.85
2019-03-05T01:53:33.757Z,7.92
2019-03-05T01:54:33.747Z,7.92
2019-03-05T01:55:33.742Z,7.89
2019-03-05T01:56:33.736Z,7.87
2019-03-05T01:57:33.719Z,7.92
2019-03-05T01:58:33.712Z,7.92
2019-03-05T01:59:33.706Z,7.84
2019-03-05T02:00:33.716Z,7.87
2019-03-05T02:01:33.699Z,7.84
2019-03-05T02:02:33.677Z,7.90
2019-03-05T02:03:33.670Z,7.85
2019-03-05T02:04:33.662Z,7.85
2019-03-05T02:05:33.648Z,7.90
2019-03-05T02:06:33.643Z,7.93
2019-03-05T02:07:33.634Z,7.87
2019-03-05T02:08:33.624Z,7.82
2019-03-05T02:09:33.639Z,7.92
2019-03-05T02:10:33.678Z,7.90
2019-03-05T02:11:33.605Z,7.89
2019-03-05T02:12:33.601Z,8.00
2019-03-05T02:13:33.587Z,7.97
2019-03-05T02:14:33.579Z,8.03
2019-03-05T02:15:33.561Z,7.97
2019-03-05T02:16:33.554Z,7.90
2019-03-05T02:17:33.545Z,7.99
2019-03-05T02:18:33.549Z,7.87
2019-03-05T02:19:33.532Z,7.99
2019-03-05T02:20:33.525Z,7.89
2019-03-05T02:21:33.545Z,7.85
2019-03-05T02:22:33.507Z,7.79
2019-03-05T02:23:33.496Z,7.85
2019-03-05T02:24:33.551Z,7.94
2019-03-05T02:25:33.480Z,7.81
2019-03-05T02:26:33.483Z,7.87
2019-03-05T02:27:33.458Z,7.82
2019-03-05T02:28:33.474Z,7.82
2019-03-05T02:29:33.441Z,7.84
2019-03-05T02:30:33.429Z,7.89
2019-03-05T02:31:33.430Z,7.90
2019-03-05T02:32:33.420Z,7.92
2019-03-05T02:33:33.408Z,7.94
2019-03-05T02:34:33.403Z,8.00
2019-03-05T02:35:33.389Z,7.93
2019-03-05T02:36:33.388Z,7.94
2019-03-05T02:37:33.368Z,8.00
2019-03-05T02:38:33.369Z,8.00
2019-03-05T02:39:33.358Z,7.94
2019-03-05T02:40:33.360Z,7.97
2019-03-05T02:41:33.345Z,7.92
2019-03-05T02:42:33.331Z,7.93
2019-03-05T02:43:33.321Z,7.97
2019-03-05T02:44:33.318Z,7.93
2019-03-05T02:45:33.305Z,7.90
2019-03-05T02:46:33.299Z,7.89
2019-03-05T02:47:33.286Z,7.99
2019-03-05T02:48:33.279Z,7.97
2019-03-05T02:49:33.265Z,7.96
2019-03-05T02:50:33.251Z,7.93
2019-03-05T02:51:33.256Z,7.97
2019-03-05T02:52:33.241Z,7.97
2019-03-05T02:53:33.226Z,7.96
2019-03-05T02:54:33.239Z,7.90
2019-03-05T02:55:33.215Z,7.89
2019-03-05T02:56:33.250Z,7.99
2019-03-05T02:57:33.242Z,7.93
2019-03-05T03:14:09.773Z,7.60
2019-03-05T03:15:09.724Z,7.71
2019-03-05T03:16:09.722Z,7.59
2019-03-05T03:17:09.709Z,7.63
2019-03-05T03:18:09.699Z,7.63
2019-03-05T03:19:09.681Z,7.69
2019-03-05T03:20:09.667Z,7.60
2019-03-05T03:21:09.682Z,7.69
2019-03-05T03:22:09.654Z,7.55
2019-03-05T03:23:09.628Z,7.59
2019-03-05T03:24:09.621Z,7.62
2019-03-05T03:25:09.612Z,7.55
2019-03-05T03:26:09.604Z,7.49
2019-03-05T03:27:09.610Z,7.52
2019-03-05T03:28:09.581Z,7.47
2019-03-05T03:29:09.569Z,7.47
2019-03-05T03:30:09.565Z,7.49
2019-03-05T03:31:09.572Z,7.56
2019-03-05T03:32:09.558Z,7.55
2019-03-05T03:33:09.545Z,7.45
2019-03-05T03:34:09.558Z,7.47
2019-03-05T03:35:09.524Z,7.45
2019-03-05T03:36:09.521Z,7.44
2019-03-05T03:37:09.499Z,7.52
2019-03-05T03:38:09.496Z,7.49
2019-03-05T03:39:09.495Z,7.49
2019-03-05T03:40:09.471Z,7.58
2019-03-05T03:41:09.460Z,7.58
2019-03-05T03:42:09.452Z,7.55
2019-03-05T03:43:09.446Z,7.45
2019-03-05T03:44:09.430Z,7.53
2019-03-05T03:45:09.429Z,7.45
2019-03-05T03:46:09.423Z,7.52
2019-03-05T03:47:09.422Z,7.53
2019-03-05T03:48:09.403Z,7.52
2019-03-05T03:49:09.404Z,7.49
2019-03-05T03:50:09.402Z,7.52
2019-03-05T03:51:09.373Z,7.49
2019-03-05T03:52:09.367Z,7.49
2019-03-05T03:53:09.356Z,7.47
2019-03-05T03:54:09.350Z,7.49
2019-03-05T03:55:09.358Z,7.59
2019-03-05T03:56:09.328Z,7.45
2019-03-05T03:57:09.322Z,7.50
2019-03-05T03:58:09.308Z,7.52
2019-03-05T03:59:09.301Z,7.47
2019-03-05T04:00:09.419Z,7.56
2019-03-05T04:01:09.291Z,7.52
2019-03-05T04:02:09.289Z,7.45
2019-03-05T04:03:09.266Z,7.50
2019-03-05T04:04:09.264Z,7.45
2019-03-05T04:05:09.243Z,7.47
2019-03-05T04:06:09.241Z,7.52
2019-03-05T04:07:09.242Z,7.49
2019-03-05T04:08:10.426Z,7.40
2019-03-05T04:09:09.213Z,7.53
2019-03-05T04:10:09.214Z,7.55
2019-03-05T04:11:09.193Z,7.55
2019-03-05T04:12:09.192Z,7.52
2019-03-05T04:13:09.178Z,7.52
2019-03-05T04:14:09.175Z,7.50
2019-03-05T04:15:09.163Z,7.52
2019-03-05T04:16:09.155Z,7.47
2019-03-05T04:17:09.147Z,7.42
2019-03-05T04:18:09.147Z,7.37
2019-03-05T04:19:09.141Z,7.45
2019-03-05T04:20:09.117Z,7.44
2019-03-05T04:21:09.123Z,7.55
2019-03-05T04:22:09.096Z,7.49
2019-03-05T04:23:09.090Z,7.47
2019-03-05T04:24:09.074Z,7.50
2019-03-05T04:25:09.065Z,7.45
2019-03-05T04:26:09.060Z,7.55
2019-03-05T04:27:09.051Z,7.47
2019-03-05T04:28:09.041Z,7.47
2019-03-05T04:29:09.033Z,7.53
2019-03-05T04:30:09.054Z,7.53
2019-03-05T04:31:09.022Z,7.42
2019-03-05T04:32:09.007Z,7.49
2019-03-05T04:33:08.995Z,7.52
2019-03-05T04:34:09.003Z,7.40
2019-03-05T04:35:08.984Z,7.42
2019-03-05T04:36:08.966Z,7.45
2019-03-05T04:37:08.958Z,7.49
2019-03-05T04:38:08.949Z,7.49
2019-03-05T04:39:08.944Z,7.47
2019-03-05T04:40:08.935Z,7.47
2019-03-05T04:41:08.945Z,7.50
2019-03-05T04:42:08.919Z,7.47
2019-03-05T04:43:08.907Z,7.49
2019-03-05T04:44:08.903Z,7.47
2019-03-05T04:45:08.890Z,7.49
2019-03-05T04:46:08.893Z,7.42
2019-03-05T04:47:08.887Z,7.49
2019-03-05T04:48:08.873Z,7.42
2019-03-05T04:49:08.851Z,7.41
2019-03-05T04:50:08.841Z,7.52
2019-03-05T04:51:08.840Z,7.45
2019-03-05T04:52:08.825Z,7.40
2019-03-05T04:53:08.828Z,7.47
2019-03-05T04:54:08.807Z,7.47
2019-03-05T04:55:08.803Z,7.45
2019-03-05T04:56:08.790Z,7.52
2019-03-05T04:57:08.779Z,7.49
2019-03-05T04:58:08.771Z,7.52
2019-03-05T04:59:08.763Z,7.40
2019-03-05T05:00:08.764Z,7.49
2019-03-05T05:01:08.754Z,7.45
2019-03-05T05:02:08.734Z,7.42
2019-03-05T05:03:08.729Z,7.38
2019-03-05T05:04:08.721Z,7.34
2019-03-05T05:05:08.711Z,7.50
2019-03-05T05:06:08.701Z,7.44
2019-03-05T05:07:08.703Z,7.45
2019-03-05T05:08:08.682Z,7.44
2019-03-05T05:09:08.677Z,7.45
2019-03-05T05:10:08.664Z,7.47
2019-03-05T05:11:08.663Z,7.45
2019-03-05T05:12:08.655Z,7.52
2019-03-05T05:13:08.670Z,7.47
2019-03-05T05:14:08.627Z,7.47
2019-03-05T05:15:08.624Z,7.53
2019-03-05T05:16:08.632Z,7.42
2019-03-05T05:17:08.617Z,7.45
2019-03-05T05:18:08.596Z,7.45
2019-03-05T05:19:08.584Z,7.50
2019-03-05T05:20:08.582Z,7.50
2019-03-05T05:21:08.603Z,7.47
2019-03-05T05:22:08.553Z,7.41
2019-03-05T05:23:08.553Z,7.44
2019-03-05T05:24:08.539Z,7.52
2019-03-05T05:25:08.529Z,7.49
2019-03-05T05:26:08.524Z,7.47
2019-03-05T05:27:08.511Z,7.49
2019-03-05T05:28:08.509Z,7.50
2019-03-05T05:29:08.492Z,7.47
2019-03-05T05:30:08.479Z,7.50
2019-03-05T05:31:08.484Z,7.50
2019-03-05T05:32:08.467Z,7.53
2019-03-05T05:33:08.475Z,7.53
2019-03-05T05:34:08.456Z,7.50
2019-03-05T05:35:08.439Z,7.47
2019-03-05T05:36:08.427Z,7.53
2019-03-05T05:37:08.428Z,7.55
2019-03-05T05:38:08.414Z,7.50
2019-03-05T05:39:08.422Z,7.50
2019-03-05T05:40:08.418Z,7.49
2019-03-05T05:41:08.390Z,7.49
2019-03-05T05:42:08.378Z,7.44
2019-03-05T05:43:08.376Z,7.44
2019-03-05T05:44:08.359Z,7.47
2019-03-05T05:45:08.368Z,7.56
2019-03-05T05:46:08.357Z,7.49
2019-03-05T05:47:08.340Z,7.49
2019-03-05T05:48:08.319Z,7.52
2019-03-05T05:49:08.321Z,7.49
2019-03-05T05:50:08.308Z,7.47
2019-03-05T05:51:08.313Z,7.44
2019-03-05T05:52:08.298Z,7.42
2019-03-05T05:53:08.299Z,7.42
2019-03-05T05:54:08.271Z,7.50
2019-03-05T05:55:08.265Z,7.47
2019-03-05T05:56:08.256Z,7.50
2019-03-05T05:57:08.246Z,7.47
2019-03-05T05:58:08.234Z,7.47
2019-03-05T05:59:08.240Z,7.50
2019-03-05T06:00:08.220Z,7.42
2019-03-05T06:01:08.205Z,7.37
2019-03-05T06:02:08.199Z,7.42
2019-03-05T06:03:08.187Z,7.50
2019-03-05T06:04:08.197Z,7.52
2019-03-05T06:05:08.179Z,7.53
2019-03-05T06:06:08.190Z,7.50
2019-03-05T06:07:16.816Z,7.47
2019-03-05T06:09:10.605Z,7.49
2019-03-05T06:10:10.185Z,7.52
2019-03-05T06:12:06.021Z,7.47
2019-03-05T06:13:05.978Z,7.47
2019-03-05T06:14:05.985Z,7.58
2019-03-05T06:15:05.962Z,7.53
2019-03-05T06:16:05.981Z,7.62
2019-03-05T06:17:05.945Z,7.60
2019-03-05T06:18:05.935Z,7.60
2019-03-05T06:19:05.930Z,7.66
2019-03-05T06:20:05.924Z,7.63
2019-03-05T06:21:05.950Z,7.59
2019-03-05T06:22:05.908Z,7.69
2019-03-05T06:23:05.891Z,7.58
2019-03-05T06:24:05.881Z,7.67
2019-03-05T06:25:05.876Z,7.66
2019-03-05T06:26:08.573Z,7.59
2019-03-05T06:27:05.856Z,7.66
2019-03-05T06:28:05.856Z,7.58
2019-03-05T06:29:05.849Z,7.52
2019-03-05T06:30:05.831Z,7.59
2019-03-05T06:31:05.819Z,7.59
2019-03-05T06:32:05.816Z,7.62
2019-03-05T06:33:05.815Z,7.56
2019-03-05T06:34:05.792Z,7.56
2019-03-05T06:35:05.781Z,7.60
2019-03-05T06:36:05.774Z,7.59
2019-03-05T06:37:05.770Z,7.56
2019-03-05T06:38:05.756Z,7.55
2019-03-05T06:39:05.743Z,7.60
2019-03-05T06:40:05.784Z,7.56
2019-03-05T06:41:05.730Z,7.60
2019-03-05T06:42:05.717Z,7.62
2019-03-05T06:43:05.718Z,7.59
2019-03-05T06:44:05.703Z,7.58
2019-03-05T06:45:05.689Z,7.52
2019-03-05T06:46:05.680Z,7.56
2019-03-05T06:47:05.684Z,7.66
2019-03-05T06:48:05.664Z,7.66
2019-03-05T06:49:05.659Z,7.69
2019-03-05T06:50:05.642Z,7.71
2019-03-05T06:51:05.632Z,7.66
2019-03-05T06:52:05.628Z,7.66
2019-03-05T06:53:05.619Z,7.72
2019-03-05T06:54:05.624Z,7.74
2019-03-05T06:55:05.606Z,7.67
2019-03-05T06:56:05.589Z,7.67
2019-03-05T06:57:05.598Z,7.72
2019-03-05T06:58:05.590Z,7.78
2019-03-05T06:59:05.568Z,7.72
2019-03-05T07:00:05.568Z,7.81
2019-03-05T07:01:05.568Z,7.92
2019-03-05T07:02:05.538Z,7.85
2019-03-05T07:03:05.553Z,7.87
2019-03-05T07:04:05.528Z,7.85
2019-03-05T07:05:05.552Z,7.87
2019-03-05T07:06:05.523Z,7.89
2019-03-05T07:07:05.519Z,7.81
2019-03-05T07:08:05.501Z,7.85
2019-03-05T07:09:05.490Z,7.85
2019-03-05T07:10:05.498Z,7.74
2019-03-05T07:11:05.476Z,7.72
2019-03-05T07:12:05.476Z,7.71
2019-03-05T07:13:05.472Z,7.60
2019-03-05T07:14:05.488Z,7.62
2019-03-05T07:15:05.472Z,7.75
2019-03-05T07:16:05.455Z,7.62
2019-03-05T07:17:05.401Z,7.69
2019-03-05T07:18:05.402Z,7.45
2019-03-05T07:19:05.394Z,7.50
2019-03-05T07:20:05.393Z,7.50
2019-03-05T07:21:05.396Z,7.53
2019-03-05T07:22:05.394Z,7.52
2019-03-05T07:23:05.382Z,7.66
2019-03-05T07:24:05.344Z,7.67
2019-03-05T07:25:05.336Z,7.85
2019-03-05T07:26:05.358Z,7.84
2019-03-05T07:27:05.373Z,7.84
2019-03-05T07:28:05.341Z,7.85
2019-03-05T07:29:05.296Z,7.82
2019-03-05T07:30:05.311Z,7.84
2019-03-05T07:31:05.323Z,7.87
2019-03-05T07:32:05.284Z,7.84
2019-03-05T07:33:05.278Z,7.82
2019-03-05T07:34:05.284Z,7.81
2019-03-05T07:35:05.326Z,7.85
2019-03-05T07:36:05.275Z,8.04
2019-03-05T07:37:05.231Z,8.02
2019-03-05T07:38:05.224Z,7.97
2019-03-05T07:39:05.232Z,7.93
2019-03-05T07:40:05.219Z,8.10
2019-03-05T07:41:05.226Z,8.07
2019-03-05T07:42:05.193Z,8.11
2019-03-05T07:43:05.181Z,8.12
2019-03-05T07:44:05.194Z,8.07
2019-03-05T07:45:05.166Z,8.22
2019-03-05T07:46:05.178Z,8.26
2019-03-05T07:47:05.172Z,8.21
2019-03-05T07:48:05.164Z,8.22
2019-03-05T07:49:05.127Z,8.30
2019-03-05T07:50:05.124Z,8.25
2019-03-05T07:51:05.170Z,8.48
2019-03-05T07:52:05.130Z,8.50
2019-03-05T07:53:05.162Z,8.66
2019-03-05T07:54:05.118Z,8.71
2019-03-05T07:55:13.221Z,8.66
2019-03-05T07:56:05.081Z,8.73
2019-03-05T07:57:05.071Z,8.71
2019-03-05T07:58:05.053Z,8.76
2019-03-05T07:59:05.051Z,8.87
2019-03-05T08:00:05.586Z,8.86
2019-03-05T08:01:05.039Z,8.97
2019-03-05T08:02:05.027Z,8.87
2019-03-05T08:03:05.029Z,8.93
2019-03-05T08:04:05.017Z,8.86
2019-03-05T08:05:04.996Z,9.05
2019-03-05T08:06:04.992Z,9.12
2019-03-05T08:07:04.991Z,9.01
2019-03-05T08:08:04.983Z,9.04
2019-03-05T08:09:04.967Z,9.01
2019-03-05T08:10:04.963Z,9.25
2019-03-05T08:11:04.964Z,9.30
2019-03-05T08:12:04.937Z,9.43
2019-03-05T08:13:04.942Z,9.58
2019-03-05T08:14:04.949Z,9.66
2019-03-05T08:15:04.916Z,9.63
2019-03-05T08:16:04.913Z,9.60
2019-03-05T08:17:04.938Z,9.58
2019-03-05T08:18:04.897Z,9.67
2019-03-05T08:19:04.887Z,9.68
2019-03-05T08:20:04.919Z,9.45
2019-03-05T08:21:04.877Z,9.35
2019-03-05T08:22:04.895Z,9.52
2019-03-05T08:23:04.856Z,9.48
2019-03-05T08:24:04.862Z,9.52
2019-03-05T08:25:04.851Z,9.38
2019-03-05T08:26:04.841Z,9.45
2019-03-05T08:27:04.839Z,9.53
2019-03-05T08:28:04.823Z,9.48
2019-03-05T08:29:04.837Z,9.46
2019-03-05T08:30:13.713Z,9.57
2019-03-05T08:31:04.800Z,9.70
2019-03-05T08:32:04.793Z,9.64
2019-03-05T08:33:04.791Z,9.49
2019-03-05T08:34:04.777Z,9.49
2019-03-05T08:35:04.778Z,9.63
2019-03-05T08:36:04.783Z,9.64
2019-03-05T08:37:04.772Z,9.50
2019-03-05T08:38:04.754Z,9.57
2019-03-05T08:39:04.743Z,9.63
2019-03-05T08:40:04.740Z,9.63
2019-03-05T08:41:04.721Z,9.67
2019-03-05T08:42:04.731Z,9.68
2019-03-05T08:43:04.728Z,9.66
2019-03-05T08:44:04.720Z,9.70
2019-03-05T08:45:04.714Z,9.85
2019-03-05T08:46:04.702Z,9.73
2019-03-05T08:47:04.715Z,9.58
2019-03-05T08:48:04.703Z,9.66
2019-03-05T08:49:04.693Z,9.66
2019-03-05T08:50:04.671Z,9.58
2019-03-05T08:51:04.652Z,9.66
2019-03-05T08:52:04.640Z,9.56
2019-03-05T08:53:04.650Z,9.61
2019-03-05T08:54:04.630Z,9.63
2019-03-05T08:55:04.625Z,9.66
2019-03-05T08:56:04.623Z,9.67
2019-03-05T08:57:04.619Z,9.68
2019-03-05T08:58:04.615Z,9.67
2019-03-05T08:59:04.598Z,9.76
2019-03-05T09:00:04.591Z,9.66
2019-03-05T09:01:04.577Z,9.73
2019-03-05T09:02:04.587Z,9.75
2019-03-05T09:03:04.566Z,9.66
2019-03-05T09:04:04.568Z,9.71
2019-03-05T09:05:04.558Z,9.73
2019-03-05T09:06:04.572Z,9.73
2019-03-05T09:07:04.531Z,9.73
2019-03-05T09:08:04.530Z,9.85
2019-03-05T09:09:04.523Z,9.76
2019-03-05T09:10:04.516Z,9.88
2019-03-05T09:11:04.557Z,10.00
2019-03-05T09:12:04.532Z,10.07
2019-03-05T09:13:04.502Z,10.00
2019-03-05T09:14:04.530Z,9.94
2019-03-05T09:15:04.538Z,9.83
2019-03-05T09:16:04.533Z,9.91
2019-03-05T09:17:04.483Z,9.93
2019-03-05T09:18:04.472Z,9.94
2019-03-05T09:19:04.461Z,9.81
2019-03-05T09:20:04.473Z,9.76
2019-03-05T09:21:04.482Z,9.70
2019-03-05T09:22:04.464Z,9.67
2019-03-05T09:23:04.434Z,9.56
2019-03-05T09:24:04.445Z,9.58
2019-03-05T09:25:04.441Z,9.64
2019-03-05T09:26:04.495Z,9.70
2019-03-05T09:27:04.417Z,9.70
2019-03-05T09:28:04.438Z,9.70
2019-03-05T09:29:04.489Z,9.60
2019-03-05T09:30:04.444Z,9.67
2019-03-05T09:31:04.371Z,9.52
2019-03-05T09:32:04.378Z,9.52
2019-03-05T09:33:04.342Z,9.56
2019-03-05T09:34:04.400Z,9.56
2019-03-05T09:35:04.338Z,9.58
2019-03-05T09:36:04.377Z,9.53
2019-03-05T09:37:04.349Z,9.46
2019-03-05T09:38:04.327Z,9.48
2019-03-05T09:39:04.301Z,9.38
2019-03-05T09:40:04.321Z,9.49
2019-03-05T09:41:04.286Z,9.42
2019-03-05T09:42:04.279Z,9.43
2019-03-05T09:43:04.291Z,9.32
2019-03-05T09:44:04.259Z,9.38
2019-03-05T09:45:04.254Z,9.46
2019-03-05T09:46:04.251Z,9.56
2019-03-05T09:47:04.240Z,9.48
2019-03-05T09:48:04.233Z,9.56
2019-03-05T09:49:04.250Z,9.49
2019-03-05T09:50:04.211Z,9.38
2019-03-05T09:51:04.217Z,9.39
2019-03-05T09:52:04.205Z,9.56
2019-03-05T09:53:04.196Z,9.58
2019-03-05T09:54:04.181Z,9.35
2019-03-05T09:55:04.181Z,9.42
2019-03-05T09:56:04.181Z,9.23
2019-03-05T09:57:04.185Z,9.31
2019-03-05T09:58:08.444Z,9.24
2019-03-05T09:59:04.151Z,9.27
2019-03-05T10:00:04.157Z,9.39
2019-03-05T10:01:04.140Z,9.25
2019-03-05T10:02:04.153Z,9.31
2019-03-05T10:03:04.128Z,9.23
2019-03-05T10:04:04.135Z,9.18
2019-03-05T10:05:04.101Z,9.06
2019-03-05T10:06:04.096Z,9.13
2019-03-05T10:07:04.108Z,9.01
2019-03-05T10:08:04.093Z,9.04
2019-03-05T10:09:04.088Z,8.94
2019-03-05T10:10:04.109Z,8.88
2019-03-05T10:11:04.066Z,8.88
2019-03-05T10:12:04.058Z,8.87
2019-03-05T10:13:04.672Z,8.78
2019-03-05T10:14:04.040Z,8.78
2019-03-05T10:15:04.023Z,8.75
2019-03-05T10:16:04.017Z,8.84
2019-03-05T10:17:04.023Z,8.86
2019-03-05T10:18:12.059Z,8.69
2019-03-05T10:19:04.512Z,8.69
2019-03-05T10:20:03.997Z,8.75
2019-03-05T10:21:03.986Z,8.69
2019-03-05T10:22:03.970Z,8.84
2019-03-05T10:23:03.962Z,8.75
2019-03-05T10:24:10.507Z,8.68
2019-03-05T10:25:06.307Z,8.91
2019-03-05T10:26:03.944Z,8.71
2019-03-05T10:27:03.929Z,8.69
2019-03-05T10:28:03.923Z,8.72
2019-03-05T10:29:03.922Z,8.60
2019-03-05T10:30:03.904Z,8.66
2019-03-05T10:31:03.934Z,8.68
2019-03-05T10:32:03.901Z,8.66
2019-03-05T10:33:03.902Z,8.62
2019-03-05T10:34:03.868Z,8.71
2019-03-05T10:35:03.871Z,8.63
2019-03-05T10:36:03.890Z,8.68
2019-03-05T10:37:12.342Z,8.55
2019-03-05T10:38:03.865Z,8.57
2019-03-05T10:39:03.830Z,8.58
2019-03-05T10:40:03.823Z,8.58
2019-03-05T10:41:03.813Z,8.66
2019-03-05T10:42:03.807Z,8.62
2019-03-05T10:43:08.366Z,8.58
2019-03-05T10:44:03.842Z,8.60
2019-03-05T10:45:03.788Z,8.65
2019-03-05T10:46:03.783Z,8.71
2019-03-05T10:47:03.800Z,8.71
2019-03-05T10:48:03.761Z,8.71
2019-03-05T10:49:03.777Z,8.71
2019-03-05T10:50:14.826Z,8.79
2019-03-05T10:51:03.731Z,8.87
2019-03-05T10:52:03.767Z,8.79
2019-03-05T10:53:03.731Z,8.76
2019-03-05T10:54:03.710Z,8.90
2019-03-05T10:55:03.726Z,8.76
2019-03-05T10:56:03.702Z,8.84
2019-03-05T10:57:03.706Z,8.86
2019-03-05T10:58:03.701Z,8.91
2019-03-05T10:59:05.402Z,8.86
2019-03-05T11:00:03.662Z,8.94
2019-03-05T11:01:03.652Z,8.96
2019-03-05T11:02:03.641Z,8.93
2019-03-05T11:03:03.637Z,8.88
2019-03-05T11:04:03.635Z,8.79
2019-03-05T11:05:03.670Z,8.73
2019-03-05T11:06:03.629Z,8.75
2019-03-05T11:07:03.615Z,8.69
2019-03-05T11:08:03.605Z,8.75
2019-03-05T11:09:03.631Z,8.75
2019-03-05T11:10:03.587Z,8.69
2019-03-05T11:11:13.043Z,8.69
2019-03-05T11:12:03.589Z,8.87
2019-03-05T11:13:03.616Z,8.88
2019-03-05T11:14:03.599Z,8.81
2019-03-05T11:15:03.581Z,8.88
2019-03-05T11:16:03.531Z,8.75
2019-03-05T11:17:03.527Z,8.81
2019-03-05T11:18:03.524Z,8.63
2019-03-05T11:19:03.553Z,8.78
2019-03-05T11:20:03.509Z,8.63
2019-03-05T11:21:03.525Z,8.66
2019-03-05T11:22:03.520Z,8.73
2019-03-05T11:23:03.477Z,8.71
2019-03-05T11:24:03.468Z,8.71
2019-03-05T11:25:03.471Z,8.58
2019-03-05T11:26:03.477Z,8.65
2019-03-05T11:27:03.466Z,8.66
2019-03-05T11:28:03.448Z,8.58
2019-03-05T11:29:03.505Z,8.71
2019-03-05T11:30:03.488Z,8.63
2019-03-05T11:31:03.421Z,8.66
2019-03-05T11:32:03.415Z,8.63
2019-03-05T11:33:03.414Z,8.69
2019-03-05T11:34:03.413Z,8.68
2019-03-05T11:35:03.415Z,8.62
2019-03-05T11:36:03.374Z,8.71
2019-03-05T11:37:03.435Z,8.76
2019-03-05T11:38:03.361Z,8.68
2019-03-05T11:39:03.359Z,8.51
2019-03-05T11:40:03.348Z,8.55
2019-03-05T11:41:03.344Z,8.54
2019-03-05T11:42:03.325Z,8.57
2019-03-05T11:43:03.320Z,8.65
2019-03-05T11:44:03.312Z,8.65
2019-03-05T11:45:07.666Z,8.65
2019-03-05T11:46:03.295Z,8.68
2019-03-05T11:47:03.294Z,8.66
2019-03-05T11:48:03.292Z,8.65
2019-03-05T11:49:03.280Z,8.81
2019-03-05T11:50:03.261Z,8.87
2019-03-05T11:51:03.282Z,8.88
2019-03-05T11:52:03.245Z,8.88
2019-03-05T11:53:03.330Z,8.87
2019-03-05T11:54:03.242Z,8.91
2019-03-05T11:55:03.250Z,8.93
2019-03-05T11:56:03.307Z,8.94
2019-03-05T11:57:03.202Z,8.97
2019-03-05T11:58:03.195Z,8.88
2019-03-05T11:59:03.182Z,8.91
2019-03-05T12:00:03.196Z,8.91
2019-03-05T12:01:03.204Z,8.94
2019-03-05T12:02:03.192Z,8.78
2019-03-05T12:03:03.146Z,8.91
2019-03-05T12:04:03.138Z,8.75
2019-03-05T12:05:03.150Z,8.75
2019-03-05T12:06:03.127Z,8.75
2019-03-05T12:07:03.121Z,8.88
2019-03-05T12:08:03.125Z,8.87
2019-03-05T12:09:03.105Z,8.81
2019-03-05T12:10:03.124Z,8.72
2019-03-05T12:11:03.087Z,8.76
2019-03-05T12:12:03.089Z,8.76
2019-03-05T12:13:03.069Z,8.84
2019-03-05T12:14:03.069Z,8.83
2019-03-05T12:15:03.080Z,8.75
2019-03-05T12:16:03.084Z,8.86
2019-03-05T12:17:03.042Z,8.90
2019-03-05T12:18:03.086Z,8.94
2019-03-05T12:19:03.021Z,8.78
2019-03-05T12:20:03.007Z,8.87
2019-03-05T12:21:03.019Z,8.91
2019-03-05T12:22:03.015Z,8.88
2019-03-05T12:23:06.626Z,8.93
2019-03-05T12:24:03.025Z,8.90
2019-03-05T12:25:03.659Z,8.83
2019-03-05T12:26:02.972Z,8.86
2019-03-05T12:27:02.960Z,8.73
2019-03-05T12:28:10.272Z,8.68
2019-03-05T12:29:02.974Z,8.75
2019-03-05T12:30:02.936Z,8.71
2019-03-05T12:31:02.934Z,8.76
2019-03-05T12:32:02.947Z,8.65
2019-03-05T12:33:02.912Z,8.65
2019-03-05T12:34:02.908Z,8.78
2019-03-05T12:35:02.934Z,8.66
2019-03-05T12:36:02.912Z,8.75
2019-03-05T12:37:02.878Z,8.63
2019-03-05T12:38:02.922Z,8.69
2019-03-05T12:39:02.865Z,8.62
2019-03-05T12:40:02.858Z,8.66
2019-03-05T12:41:02.898Z,8.69
2019-03-05T12:42:03.716Z,8.63
2019-03-05T12:43:02.893Z,8.65
2019-03-05T12:44:05.263Z,8.78
2019-03-05T12:45:02.822Z,8.76
2019-03-05T12:46:02.806Z,8.76
2019-03-05T12:47:02.813Z,8.65
2019-03-05T12:48:02.793Z,8.65
2019-03-05T12:49:02.807Z,8.63
2019-03-05T12:50:02.810Z,8.72
2019-03-05T12:51:02.810Z,8.66
2019-03-05T12:52:02.759Z,8.68
2019-03-05T12:53:02.758Z,8.65
2019-03-05T12:54:02.789Z,8.66
2019-03-05T12:55:02.787Z,8.79
2019-03-05T12:56:02.744Z,8.76
2019-03-05T12:57:02.725Z,8.71
2019-03-05T12:58:02.745Z,8.71
2019-03-05T12:59:02.730Z,8.65
2019-03-05T13:00:02.688Z,8.65
2019-03-05T13:01:02.693Z,8.68
2019-03-05T13:02:02.677Z,8.73
2019-03-05T13:03:02.673Z,8.65
2019-03-05T13:04:02.668Z,8.78
2019-03-05T13:05:02.663Z,8.69
2019-03-05T13:06:02.655Z,8.68
2019-03-05T13:07:02.641Z,8.65
2019-03-05T13:08:02.627Z,8.72
2019-03-05T13:09:02.626Z,8.68
2019-03-05T13:10:02.739Z,8.62
2019-03-05T13:11:02.601Z,8.79
2019-03-05T13:12:02.596Z,8.63
2019-03-05T13:13:02.599Z,8.58
2019-03-05T13:14:06.228Z,8.65
2019-03-05T13:15:02.579Z,8.62
2019-03-05T13:16:02.569Z,8.66
2019-03-05T13:17:02.566Z,8.71
2019-03-05T13:18:02.580Z,8.63
2019-03-05T13:19:05.397Z,8.75
2019-03-05T13:20:02.525Z,8.63
2019-03-05T13:21:03.558Z,8.66
2019-03-05T13:22:04.799Z,8.62
2019-03-05T13:23:08.462Z,8.65
2019-03-05T13:24:02.515Z,8.60
2019-03-05T13:25:02.555Z,8.57
2019-03-05T13:26:03.068Z,8.62
2019-03-05T13:27:02.491Z,8.57
2019-03-05T13:28:04.158Z,8.62
2019-03-05T13:29:02.543Z,8.55
2019-03-05T13:30:02.476Z,8.58
2019-03-05T13:31:05.073Z,8.62
2019-03-05T13:32:02.477Z,8.69
2019-03-05T13:33:02.436Z,8.78
2019-03-05T13:34:02.415Z,8.66
2019-03-05T13:35:02.426Z,8.68
2019-03-05T13:36:05.516Z,8.66
2019-03-05T13:37:02.438Z,8.65